Terminal Aerodrome Forecast
Issued by NWS

Home | Current Version | Previous Version | Graphics & Text | Print | Product List | Glossary On
Versions: 1 2 3 4 5 6 7 8 9 10 11 12 13 14 15 16
000
FTUS43 KMPX 221735
TAFAXN
TAF
KAXN 221735Z 2218/2318 08004KT P6SM SCT070 BKN110
     FM221930 36007KT P6SM BKN045
     FM222100 34010KT P6SM VCSH BKN015 OVC030
     FM222300 34011KT P6SM VCSH OVC008
     FM230300 35011KT P6SM OVC010
     FM230900 36010KT P6SM OVC020
     FM231500 05010KT P6SM BKN035=

USA.gov is the U.S. government's official web portal to all federal, state and local government web resources and services.